UAL1213 KEWR-KMCO
Flight info
| Callsign | UAL1213 |
|---|---|
| Flight time | 2h 5m |
| Altitude | 36000 |
| Route | ELVAE NECCK WHITE Q409 CRPLR PAACK Q97 ELMSZ IGARY Q85 LPERD GTOUT1 |
| Aircraft | B739/M-SDE2E3FGHIRWXY/LB1 |
Departure
| Time | 2026-04-25 01:05 |
|---|---|
| Airport | Newark Liberty International Airport (KEWR) |
Arrival
| Time | 2026-04-25 03:10 |
|---|---|
| Airport | Orlando International Airport (KMCO) |
| Time | Latitude | Longitude | Altitude | Speed | Heading |
|---|---|---|---|---|---|
| 2026-04-25 00:22 | 40.68438 | -74.18335 | 21 ft | 0 kts | 185° |
| 2026-04-25 00:53 | 40.68451 | -74.18333 | 23 ft | 3 kts | 185° |
| 2026-04-25 00:53 | 40.68471 | -74.18331 | 21 ft | 3 kts | 185° |
| 2026-04-25 00:53 | 40.68488 | -74.18329 | 23 ft | 3 kts | 171° |
| 2026-04-25 00:53 | 40.68502 | -74.18336 | 24 ft | 3 kts | 120° |
| 2026-04-25 00:54 | 40.68506 | -74.18357 | 24 ft | 3 kts | 95° |
| 2026-04-25 00:54 | 40.68507 | -74.18380 | 22 ft | 0 kts | 95° |
| 2026-04-25 00:57 | 40.68507 | -74.18378 | 22 ft | 1 kts | 95° |
| 2026-04-25 00:58 | 40.68506 | -74.18356 | 24 ft | 5 kts | 95° |
| 2026-04-25 00:58 | 40.68501 | -74.18275 | 21 ft | 12 kts | 94° |
| 2026-04-25 00:58 | 40.68477 | -74.18166 | -3 ft | 12 kts | 123° |
| 2026-04-25 00:58 | 40.68431 | -74.18073 | 22 ft | 12 kts | 115° |
| 2026-04-25 00:59 | 40.68399 | -74.17986 | 21 ft | 9 kts | 116° |
| 2026-04-25 00:59 | 40.68373 | -74.17914 | 21 ft | 6 kts | 116° |
| 2026-04-25 00:59 | 40.68369 | -74.17904 | 21 ft | 0 kts | 115° |
| 2026-04-25 01:00 | 40.68369 | -74.17902 | 21 ft | 1 kts | 115° |
| 2026-04-25 01:00 | 40.68362 | -74.17883 | 21 ft | 4 kts | 115° |
| 2026-04-25 01:00 | 40.68345 | -74.17837 | 21 ft | 7 kts | 115° |
| 2026-04-25 01:00 | 40.68319 | -74.17767 | 21 ft | 10 kts | 116° |
| 2026-04-25 01:01 | 40.68287 | -74.17681 | 21 ft | 10 kts | 120° |
| 2026-04-25 01:01 | 40.68224 | -74.17670 | 21 ft | 10 kts | 204° |
| 2026-04-25 01:01 | 40.68162 | -74.17710 | 21 ft | 10 kts | 206° |
| 2026-04-25 01:01 | 40.68102 | -74.17748 | 22 ft | 10 kts | 206° |
| 2026-04-25 01:02 | 40.68039 | -74.17788 | 21 ft | 11 kts | 206° |
| 2026-04-25 01:02 | 40.67968 | -74.17833 | 21 ft | 13 kts | 206° |
| 2026-04-25 01:02 | 40.67875 | -74.17893 | 22 ft | 16 kts | 206° |
| 2026-04-25 01:02 | 40.67779 | -74.17954 | 21 ft | 15 kts | 206° |
| 2026-04-25 01:03 | 40.67688 | -74.18012 | 21 ft | 14 kts | 206° |
| 2026-04-25 01:03 | 40.67620 | -74.18046 | 21 ft | 8 kts | 184° |
| 2026-04-25 01:03 | 40.67581 | -74.18019 | 21 ft | 5 kts | 134° |
| 2026-04-25 01:03 | 40.67563 | -74.17979 | 23 ft | 5 kts | 114° |
| 2026-04-25 01:04 | 40.67557 | -74.17946 | 22 ft | 0 kts | 85° |
| 2026-04-25 01:04 | 40.67561 | -74.17936 | 22 ft | 3 kts | 55° |
| 2026-04-25 01:04 | 40.67594 | -74.17909 | 23 ft | 10 kts | 25° |
| 2026-04-25 01:04 | 40.67767 | -74.17800 | 22 ft | 59 kts | 26° |
| 2026-04-25 01:05 | 40.68352 | -74.17427 | 23 ft | 125 kts | 26° |
| 2026-04-25 01:05 | 40.69297 | -74.16824 | 26 ft | 175 kts | 23° |
| 2026-04-25 01:05 | 40.70463 | -74.16135 | 487 ft | 183 kts | 27° |
| 2026-04-25 01:05 | 40.71565 | -74.15332 | 1243 ft | 180 kts | 42° |
| 2026-04-25 01:06 | 40.72481 | -74.14150 | 1772 ft | 188 kts | 49° |
| 2026-04-25 01:06 | 40.73400 | -74.12954 | 2510 ft | 183 kts | 45° |
| 2026-04-25 01:06 | 40.74346 | -74.11780 | 3001 ft | 195 kts | 43° |
| 2026-04-25 01:06 | 40.75414 | -74.10527 | 3187 ft | 216 kts | 33° |
| 2026-04-25 01:07 | 40.76903 | -74.10061 | 3437 ft | 231 kts | 351° |
| 2026-04-25 01:07 | 40.78316 | -74.11074 | 3892 ft | 242 kts | 312° |
| 2026-04-25 01:07 | 40.79045 | -74.13129 | 4269 ft | 256 kts | 283° |
| 2026-04-25 01:07 | 40.79315 | -74.15468 | 5045 ft | 259 kts | 271° |
| 2026-04-25 01:08 | 40.78904 | -74.17761 | 5931 ft | 261 kts | 244° |
| 2026-04-25 01:08 | 40.77715 | -74.19563 | 6684 ft | 272 kts | 218° |
| 2026-04-25 01:08 | 40.75954 | -74.20587 | 7359 ft | 284 kts | 201° |
| 2026-04-25 01:08 | 40.74007 | -74.21237 | 7965 ft | 293 kts | 198° |
| 2026-04-25 01:09 | 40.71988 | -74.21830 | 8623 ft | 300 kts | 198° |
| 2026-04-25 01:09 | 40.69895 | -74.22404 | 9322 ft | 306 kts | 198° |
| 2026-04-25 01:09 | 40.67788 | -74.22949 | 9980 ft | 312 kts | 198° |
| 2026-04-25 01:09 | 40.65620 | -74.23494 | 10388 ft | 326 kts | 198° |
| 2026-04-25 01:10 | 40.63318 | -74.24087 | 10540 ft | 348 kts | 198° |
| 2026-04-25 01:10 | 40.60876 | -74.24732 | 10729 ft | 366 kts | 198° |
| 2026-04-25 01:10 | 40.58348 | -74.25411 | 11194 ft | 374 kts | 198° |
| 2026-04-25 01:10 | 40.55785 | -74.26098 | 11808 ft | 378 kts | 196° |
| 2026-04-25 01:11 | 40.53121 | -74.26323 | 12473 ft | 389 kts | 182° |
| 2026-04-25 01:11 | 40.50409 | -74.25983 | 13127 ft | 395 kts | 175° |
| 2026-04-25 01:11 | 40.47713 | -74.25100 | 13749 ft | 404 kts | 163° |
| 2026-04-25 01:11 | 40.45125 | -74.23737 | 14306 ft | 409 kts | 159° |
| 2026-04-25 01:12 | 40.42509 | -74.22234 | 14892 ft | 411 kts | 159° |
| 2026-04-25 01:12 | 40.39879 | -74.20732 | 15446 ft | 414 kts | 160° |
| 2026-04-25 01:12 | 40.37217 | -74.19260 | 15973 ft | 417 kts | 160° |
| 2026-04-25 01:12 | 40.34517 | -74.17818 | 16507 ft | 419 kts | 164° |
| 2026-04-25 01:13 | 40.31696 | -74.16931 | 17011 ft | 416 kts | 178° |
| 2026-04-25 01:13 | 40.28821 | -74.16806 | 17555 ft | 411 kts | 189° |
| 2026-04-25 01:13 | 40.26021 | -74.17395 | 18080 ft | 407 kts | 199° |
| 2026-04-25 01:13 | 40.23260 | -74.18256 | 18536 ft | 410 kts | 199° |
| 2026-04-25 01:14 | 40.20469 | -74.19146 | 18965 ft | 414 kts | 199° |
| 2026-04-25 01:14 | 40.17658 | -74.20028 | 19410 ft | 418 kts | 199° |
| 2026-04-25 01:14 | 40.14816 | -74.20898 | 19848 ft | 422 kts | 199° |
| 2026-04-25 01:14 | 40.11941 | -74.21762 | 20285 ft | 426 kts | 199° |
| 2026-04-25 01:15 | 40.09041 | -74.22625 | 20718 ft | 429 kts | 199° |
| 2026-04-25 01:15 | 40.06117 | -74.23493 | 21141 ft | 433 kts | 199° |
| 2026-04-25 01:15 | 40.03174 | -74.24406 | 21549 ft | 434 kts | 202° |
| 2026-04-25 01:15 | 40.00364 | -74.25791 | 21956 ft | 430 kts | 212° |
| 2026-04-25 01:16 | 39.97785 | -74.27712 | 22369 ft | 424 kts | 222° |
| 2026-04-25 01:16 | 39.95403 | -74.29998 | 22786 ft | 426 kts | 224° |
| 2026-04-25 01:16 | 39.93033 | -74.32331 | 23168 ft | 430 kts | 224° |
| 2026-04-25 01:16 | 39.90631 | -74.34681 | 23560 ft | 433 kts | 224° |
| 2026-04-25 01:17 | 39.88199 | -74.37026 | 23896 ft | 437 kts | 223° |
| 2026-04-25 01:17 | 39.86576 | -74.38574 | 24130 ft | 438 kts | 223° |
| 2026-04-25 01:17 | 39.83271 | -74.41713 | 24599 ft | 441 kts | 223° |
| 2026-04-25 01:17 | 39.80869 | -74.44184 | 24933 ft | 437 kts | 231° |
| 2026-04-25 01:18 | 39.78714 | -74.46970 | 25278 ft | 437 kts | 233° |
| 2026-04-25 01:18 | 39.76601 | -74.49810 | 25615 ft | 438 kts | 233° |
| 2026-04-25 01:18 | 39.74484 | -74.52678 | 25936 ft | 441 kts | 233° |
| 2026-04-25 01:18 | 39.72352 | -74.55557 | 26251 ft | 443 kts | 233° |
| 2026-04-25 01:19 | 39.70199 | -74.58442 | 26573 ft | 446 kts | 233° |
| 2026-04-25 01:19 | 39.68033 | -74.61327 | 26894 ft | 448 kts | 233° |
| 2026-04-25 01:19 | 39.65844 | -74.64228 | 27211 ft | 450 kts | 233° |
| 2026-04-25 01:19 | 39.63648 | -74.67131 | 27525 ft | 452 kts | 233° |
| 2026-04-25 01:20 | 39.61437 | -74.70047 | 27851 ft | 454 kts | 233° |
| 2026-04-25 01:20 | 39.59210 | -74.72981 | 28157 ft | 456 kts | 233° |
| 2026-04-25 01:20 | 39.56981 | -74.75916 | 28449 ft | 458 kts | 233° |
| 2026-04-25 01:20 | 39.54775 | -74.78819 | 28742 ft | 460 kts | 233° |
| 2026-04-25 01:21 | 39.52515 | -74.81789 | 29032 ft | 462 kts | 233° |
| 2026-04-25 01:21 | 39.50259 | -74.84750 | 29321 ft | 464 kts | 233° |
| 2026-04-25 01:21 | 39.47949 | -74.87781 | 29644 ft | 465 kts | 232° |
| 2026-04-25 01:21 | 39.45713 | -74.90709 | 30062 ft | 463 kts | 233° |
| 2026-04-25 01:22 | 39.43449 | -74.93670 | 30458 ft | 461 kts | 233° |
| 2026-04-25 01:22 | 39.41200 | -74.96610 | 30796 ft | 460 kts | 233° |
| 2026-04-25 01:22 | 39.38949 | -74.99553 | 31088 ft | 460 kts | 233° |
| 2026-04-25 01:22 | 39.36696 | -75.02498 | 31360 ft | 460 kts | 232° |
| 2026-04-25 01:23 | 39.34448 | -75.05433 | 31682 ft | 459 kts | 232° |
| 2026-04-25 01:23 | 39.32217 | -75.08341 | 32000 ft | 458 kts | 232° |
| 2026-04-25 01:23 | 39.29955 | -75.11284 | 32291 ft | 458 kts | 232° |
| 2026-04-25 01:23 | 39.27653 | -75.14140 | 32564 ft | 460 kts | 230° |
| 2026-04-25 01:24 | 39.25276 | -75.16913 | 32848 ft | 461 kts | 229° |
| 2026-04-25 01:24 | 39.22880 | -75.19651 | 33131 ft | 460 kts | 229° |
| 2026-04-25 01:24 | 39.20491 | -75.22384 | 33390 ft | 459 kts | 229° |
| 2026-04-25 01:24 | 39.18106 | -75.25132 | 33617 ft | 459 kts | 229° |
| 2026-04-25 01:25 | 39.15738 | -75.27881 | 33871 ft | 459 kts | 229° |
| 2026-04-25 01:25 | 39.13372 | -75.30638 | 34119 ft | 457 kts | 229° |
| 2026-04-25 01:25 | 39.11015 | -75.33386 | 34330 ft | 457 kts | 229° |
| 2026-04-25 01:25 | 39.08658 | -75.36133 | 34515 ft | 457 kts | 229° |
| 2026-04-25 01:26 | 39.06298 | -75.38878 | 34720 ft | 457 kts | 229° |
| 2026-04-25 01:26 | 39.04708 | -75.40663 | 34847 ft | 460 kts | 224° |
| 2026-04-25 01:26 | 39.01981 | -75.42895 | 35039 ft | 471 kts | 212° |
| 2026-04-25 01:26 | 38.98908 | -75.44437 | 35255 ft | 478 kts | 200° |
| 2026-04-25 01:27 | 38.95613 | -75.45207 | 35446 ft | 485 kts | 191° |
| 2026-04-25 01:27 | 38.92257 | -75.45635 | 35636 ft | 485 kts | 189° |
| 2026-04-25 01:27 | 38.88891 | -75.46013 | 35801 ft | 486 kts | 189° |
| 2026-04-25 01:28 | 38.78789 | -75.47310 | 35902 ft | 485 kts | 191° |
| 2026-04-25 01:28 | 38.72109 | -75.48253 | 35911 ft | 481 kts | 191° |
| 2026-04-25 01:29 | 38.65465 | -75.49159 | 35905 ft | 479 kts | 191° |
| 2026-04-25 01:29 | 38.58848 | -75.50042 | 35907 ft | 477 kts | 191° |
| 2026-04-25 01:30 | 38.52256 | -75.50931 | 35898 ft | 476 kts | 191° |
| 2026-04-25 01:30 | 38.45677 | -75.51819 | 35897 ft | 476 kts | 190° |
| 2026-04-25 01:31 | 38.39084 | -75.52706 | 35900 ft | 477 kts | 191° |
| 2026-04-25 01:31 | 38.32765 | -75.54847 | 35901 ft | 466 kts | 210° |
| 2026-04-25 01:32 | 38.27266 | -75.58991 | 35905 ft | 457 kts | 221° |
| 2026-04-25 01:32 | 38.22047 | -75.63643 | 35894 ft | 459 kts | 221° |
| 2026-04-25 01:33 | 38.16789 | -75.68292 | 35900 ft | 461 kts | 220° |
| 2026-04-25 01:33 | 38.11496 | -75.72903 | 35889 ft | 462 kts | 220° |
| 2026-04-25 01:34 | 38.06192 | -75.77495 | 35908 ft | 461 kts | 220° |
| 2026-04-25 01:34 | 38.00902 | -75.82072 | 35908 ft | 460 kts | 220° |
| 2026-04-25 01:35 | 37.95632 | -75.86621 | 35913 ft | 461 kts | 220° |
| 2026-04-25 01:35 | 37.90337 | -75.91188 | 35913 ft | 460 kts | 220° |
| 2026-04-25 01:36 | 37.85038 | -75.95751 | 35912 ft | 461 kts | 219° |
| 2026-04-25 01:36 | 37.79737 | -76.00305 | 35924 ft | 461 kts | 219° |
| 2026-04-25 01:37 | 37.74426 | -76.04860 | 35919 ft | 461 kts | 219° |
| 2026-04-25 01:37 | 37.69123 | -76.09401 | 35910 ft | 461 kts | 219° |
| 2026-04-25 01:38 | 37.63816 | -76.13939 | 35906 ft | 461 kts | 219° |
| 2026-04-25 01:38 | 37.58401 | -76.18306 | 35898 ft | 464 kts | 213° |
| 2026-04-25 01:39 | 37.52683 | -76.22111 | 35895 ft | 465 kts | 211° |
| 2026-04-25 01:39 | 37.46918 | -76.25832 | 35886 ft | 465 kts | 212° |
| 2026-04-25 01:40 | 37.41173 | -76.29592 | 35890 ft | 466 kts | 212° |
| 2026-04-25 01:40 | 37.35435 | -76.33385 | 35890 ft | 466 kts | 212° |
| 2026-04-25 01:41 | 37.29699 | -76.37183 | 35897 ft | 466 kts | 212° |
| 2026-04-25 01:41 | 37.23962 | -76.40977 | 35905 ft | 466 kts | 212° |
| 2026-04-25 01:42 | 37.18223 | -76.44763 | 35905 ft | 466 kts | 212° |
| 2026-04-25 01:42 | 37.12478 | -76.48546 | 35908 ft | 466 kts | 212° |
| 2026-04-25 01:43 | 37.06729 | -76.52324 | 35905 ft | 467 kts | 212° |
| 2026-04-25 01:43 | 37.00973 | -76.56100 | 35887 ft | 467 kts | 212° |
| 2026-04-25 01:44 | 36.95259 | -76.59843 | 35883 ft | 467 kts | 211° |
| 2026-04-25 01:44 | 36.89507 | -76.63604 | 35891 ft | 466 kts | 211° |
| 2026-04-25 01:45 | 36.83766 | -76.67351 | 35888 ft | 466 kts | 211° |
| 2026-04-25 01:45 | 36.78021 | -76.71096 | 35900 ft | 465 kts | 211° |
| 2026-04-25 01:46 | 36.72281 | -76.74829 | 35903 ft | 465 kts | 211° |
| 2026-04-25 01:46 | 36.66544 | -76.78554 | 35905 ft | 465 kts | 211° |
| 2026-04-25 01:47 | 36.60808 | -76.82273 | 35906 ft | 465 kts | 211° |
| 2026-04-25 01:47 | 36.55078 | -76.85982 | 35902 ft | 465 kts | 211° |
| 2026-04-25 01:48 | 36.49338 | -76.89692 | 35883 ft | 465 kts | 211° |
| 2026-04-25 01:48 | 36.43607 | -76.93387 | 35883 ft | 464 kts | 210° |
| 2026-04-25 01:49 | 36.37884 | -76.97073 | 35888 ft | 464 kts | 210° |
| 2026-04-25 01:49 | 36.32152 | -77.00759 | 35893 ft | 464 kts | 210° |
| 2026-04-25 01:50 | 36.26418 | -77.04440 | 35895 ft | 464 kts | 210° |
| 2026-04-25 01:50 | 36.20675 | -77.08119 | 35892 ft | 465 kts | 210° |
| 2026-04-25 01:51 | 36.14964 | -77.11774 | 35890 ft | 466 kts | 210° |
| 2026-04-25 01:51 | 36.09206 | -77.15451 | 35884 ft | 466 kts | 210° |
| 2026-04-25 01:52 | 36.03436 | -77.19131 | 35883 ft | 466 kts | 210° |
| 2026-04-25 01:52 | 35.97667 | -77.22805 | 35881 ft | 466 kts | 210° |
| 2026-04-25 01:53 | 35.91977 | -77.26600 | 35879 ft | 463 kts | 217° |
| 2026-04-25 01:53 | 35.86894 | -77.31437 | 35880 ft | 461 kts | 221° |
| 2026-04-25 01:54 | 35.81893 | -77.36365 | 35881 ft | 460 kts | 221° |
| 2026-04-25 01:54 | 35.76868 | -77.41244 | 35872 ft | 460 kts | 220° |
| 2026-04-25 01:55 | 35.71828 | -77.46086 | 35876 ft | 459 kts | 220° |
| 2026-04-25 01:55 | 35.66790 | -77.50911 | 35883 ft | 459 kts | 220° |
| 2026-04-25 01:56 | 35.61746 | -77.55739 | 35870 ft | 460 kts | 220° |
| 2026-04-25 01:56 | 35.56696 | -77.60565 | 35872 ft | 460 kts | 220° |
| 2026-04-25 01:57 | 35.49126 | -77.67785 | 35889 ft | 459 kts | 220° |
| 2026-04-25 01:58 | 35.44075 | -77.72596 | 35886 ft | 459 kts | 220° |
| 2026-04-25 01:58 | 35.39029 | -77.77395 | 35902 ft | 459 kts | 219° |
| 2026-04-25 01:59 | 35.33986 | -77.82185 | 35886 ft | 458 kts | 219° |
| 2026-04-25 01:59 | 35.28949 | -77.86962 | 35888 ft | 458 kts | 219° |
| 2026-04-25 02:00 | 35.23918 | -77.91723 | 35892 ft | 457 kts | 219° |
| 2026-04-25 02:00 | 35.18886 | -77.96478 | 35883 ft | 457 kts | 219° |
| 2026-04-25 02:01 | 35.13862 | -78.01221 | 35904 ft | 456 kts | 219° |
| 2026-04-25 02:01 | 35.08845 | -78.05948 | 35904 ft | 455 kts | 219° |
| 2026-04-25 02:02 | 35.03832 | -78.10663 | 35903 ft | 455 kts | 219° |
| 2026-04-25 02:02 | 34.98824 | -78.15367 | 35901 ft | 454 kts | 219° |
| 2026-04-25 02:03 | 34.93823 | -78.20056 | 35893 ft | 453 kts | 219° |
| 2026-04-25 02:03 | 34.88832 | -78.24729 | 35913 ft | 452 kts | 219° |
| 2026-04-25 02:04 | 34.83851 | -78.29385 | 35910 ft | 451 kts | 219° |
| 2026-04-25 02:04 | 34.78872 | -78.34031 | 35906 ft | 450 kts | 219° |
| 2026-04-25 02:05 | 34.73908 | -78.38655 | 35903 ft | 449 kts | 219° |
| 2026-04-25 02:05 | 34.68948 | -78.43270 | 35916 ft | 448 kts | 219° |
| 2026-04-25 02:06 | 34.63996 | -78.47871 | 35927 ft | 448 kts | 219° |
| 2026-04-25 02:06 | 34.59079 | -78.52431 | 35924 ft | 448 kts | 219° |
| 2026-04-25 02:07 | 34.54130 | -78.57014 | 35925 ft | 447 kts | 219° |
| 2026-04-25 02:07 | 34.49189 | -78.61585 | 35925 ft | 447 kts | 219° |
| 2026-04-25 02:08 | 34.44255 | -78.66144 | 35915 ft | 446 kts | 219° |
| 2026-04-25 02:08 | 34.39312 | -78.70684 | 35944 ft | 446 kts | 218° |
| 2026-04-25 02:09 | 34.34203 | -78.74972 | 35950 ft | 447 kts | 216° |
| 2026-04-25 02:09 | 34.29056 | -78.79185 | 35944 ft | 447 kts | 216° |
| 2026-04-25 02:10 | 34.23930 | -78.83441 | 35942 ft | 447 kts | 216° |
| 2026-04-25 02:10 | 34.18816 | -78.87700 | 35935 ft | 446 kts | 216° |
| 2026-04-25 02:11 | 34.13706 | -78.91953 | 35927 ft | 446 kts | 216° |
| 2026-04-25 02:11 | 34.08594 | -78.96203 | 35926 ft | 446 kts | 216° |
| 2026-04-25 02:12 | 34.03483 | -79.00449 | 35939 ft | 446 kts | 216° |
| 2026-04-25 02:12 | 33.98382 | -79.04680 | 35945 ft | 445 kts | 216° |
| 2026-04-25 02:13 | 33.93308 | -79.08882 | 35953 ft | 445 kts | 216° |
| 2026-04-25 02:13 | 33.88200 | -79.13105 | 35949 ft | 445 kts | 216° |
| 2026-04-25 02:14 | 33.83102 | -79.17315 | 35957 ft | 445 kts | 216° |
| 2026-04-25 02:14 | 33.77998 | -79.21524 | 35949 ft | 445 kts | 216° |
| 2026-04-25 02:15 | 33.72900 | -79.25723 | 35949 ft | 444 kts | 216° |
| 2026-04-25 02:15 | 33.68665 | -79.29205 | 35946 ft | 444 kts | 216° |
| 2026-04-25 02:16 | 33.63802 | -79.33723 | 35951 ft | 441 kts | 221° |
| 2026-04-25 02:16 | 33.59098 | -79.38465 | 35941 ft | 442 kts | 222° |
| 2026-04-25 02:17 | 33.54391 | -79.43204 | 35953 ft | 442 kts | 222° |
| 2026-04-25 02:17 | 33.49714 | -79.47866 | 35959 ft | 443 kts | 221° |
| 2026-04-25 02:18 | 33.44964 | -79.52572 | 35952 ft | 443 kts | 221° |
| 2026-04-25 02:18 | 33.40208 | -79.57273 | 35954 ft | 443 kts | 221° |
| 2026-04-25 02:19 | 33.35455 | -79.61965 | 35953 ft | 444 kts | 221° |
| 2026-04-25 02:19 | 33.30691 | -79.66663 | 35947 ft | 444 kts | 221° |
| 2026-04-25 02:20 | 33.25925 | -79.71357 | 35949 ft | 444 kts | 221° |
| 2026-04-25 02:20 | 33.21151 | -79.76049 | 35959 ft | 444 kts | 221° |
| 2026-04-25 02:21 | 33.16377 | -79.80735 | 35955 ft | 445 kts | 221° |
| 2026-04-25 02:21 | 33.11597 | -79.85421 | 35961 ft | 444 kts | 221° |
| 2026-04-25 02:22 | 33.06816 | -79.90100 | 35959 ft | 444 kts | 221° |
| 2026-04-25 02:22 | 33.02071 | -79.94738 | 35973 ft | 444 kts | 221° |
| 2026-04-25 02:23 | 32.97292 | -79.99403 | 35967 ft | 444 kts | 221° |
| 2026-04-25 02:23 | 32.92511 | -80.04062 | 35975 ft | 444 kts | 221° |
| 2026-04-25 02:24 | 32.87732 | -80.08713 | 35973 ft | 444 kts | 221° |
| 2026-04-25 02:24 | 32.82948 | -80.13362 | 35972 ft | 444 kts | 221° |
| 2026-04-25 02:25 | 32.78162 | -80.18007 | 35964 ft | 444 kts | 221° |
| 2026-04-25 02:25 | 32.73376 | -80.22646 | 35970 ft | 444 kts | 221° |
| 2026-04-25 02:26 | 32.68578 | -80.27290 | 35968 ft | 445 kts | 221° |
| 2026-04-25 02:26 | 32.63779 | -80.31929 | 35962 ft | 445 kts | 221° |
| 2026-04-25 02:27 | 32.58975 | -80.36564 | 35962 ft | 446 kts | 220° |
| 2026-04-25 02:27 | 32.53773 | -80.40587 | 35972 ft | 448 kts | 211° |
| 2026-04-25 02:28 | 32.48322 | -80.44193 | 35961 ft | 449 kts | 211° |
| 2026-04-25 02:28 | 32.42869 | -80.47800 | 35967 ft | 449 kts | 211° |
| 2026-04-25 02:29 | 32.37423 | -80.51446 | 35967 ft | 450 kts | 211° |
| 2026-04-25 02:29 | 32.31984 | -80.55104 | 35976 ft | 450 kts | 211° |
| 2026-04-25 02:30 | 32.26544 | -80.58762 | 35979 ft | 450 kts | 211° |
| 2026-04-25 02:30 | 32.21098 | -80.62417 | 35983 ft | 450 kts | 211° |
| 2026-04-25 02:31 | 32.15654 | -80.66066 | 35980 ft | 450 kts | 211° |
| 2026-04-25 02:31 | 32.10214 | -80.69705 | 35977 ft | 449 kts | 211° |
| 2026-04-25 02:32 | 32.04810 | -80.73315 | 35972 ft | 449 kts | 211° |
| 2026-04-25 02:32 | 31.99375 | -80.76943 | 35966 ft | 449 kts | 211° |
| 2026-04-25 02:33 | 31.93932 | -80.80570 | 35958 ft | 449 kts | 211° |
| 2026-04-25 02:33 | 31.88497 | -80.84187 | 35945 ft | 449 kts | 211° |
| 2026-04-25 02:34 | 31.83059 | -80.87803 | 35950 ft | 449 kts | 211° |
| 2026-04-25 02:34 | 31.77616 | -80.91414 | 35949 ft | 449 kts | 211° |
| 2026-04-25 02:35 | 31.72169 | -80.95024 | 35949 ft | 450 kts | 211° |
| 2026-04-25 02:35 | 31.66717 | -80.98634 | 35960 ft | 450 kts | 211° |
| 2026-04-25 02:36 | 31.61262 | -81.02241 | 35953 ft | 450 kts | 211° |
| 2026-04-25 02:36 | 31.55779 | -81.05799 | 35957 ft | 451 kts | 210° |
| 2026-04-25 02:37 | 31.50204 | -81.09182 | 35957 ft | 451 kts | 209° |
| 2026-04-25 02:37 | 31.44626 | -81.12566 | 35967 ft | 451 kts | 210° |
| 2026-04-25 02:38 | 31.39058 | -81.15972 | 35960 ft | 452 kts | 210° |
| 2026-04-25 02:38 | 31.33465 | -81.19332 | 35976 ft | 452 kts | 209° |
| 2026-04-25 02:39 | 31.27889 | -81.22621 | 35965 ft | 452 kts | 209° |
| 2026-04-25 02:39 | 31.22274 | -81.25943 | 35973 ft | 452 kts | 208° |
| 2026-04-25 02:40 | 31.16273 | -81.28168 | 35969 ft | 456 kts | 190° |
| 2026-04-25 02:40 | 31.09911 | -81.28424 | 35975 ft | 459 kts | 181° |
| 2026-04-25 02:41 | 31.03528 | -81.28304 | 35972 ft | 459 kts | 181° |
| 2026-04-25 02:41 | 30.97147 | -81.28228 | 35975 ft | 459 kts | 181° |
| 2026-04-25 02:42 | 30.90760 | -81.28198 | 35967 ft | 459 kts | 182° |
| 2026-04-25 02:42 | 30.87562 | -81.28189 | 35749 ft | 463 kts | 182° |
| 2026-04-25 02:42 | 30.84303 | -81.28181 | 35091 ft | 471 kts | 182° |
| 2026-04-25 02:42 | 30.81024 | -81.28171 | 34402 ft | 471 kts | 181° |
| 2026-04-25 02:43 | 30.77753 | -81.28160 | 33648 ft | 471 kts | 181° |
| 2026-04-25 02:43 | 30.74471 | -81.28149 | 32842 ft | 472 kts | 181° |
| 2026-04-25 02:43 | 30.71187 | -81.28138 | 32035 ft | 472 kts | 181° |
| 2026-04-25 02:43 | 30.67909 | -81.28126 | 31279 ft | 471 kts | 181° |
| 2026-04-25 02:44 | 30.64660 | -81.28114 | 30743 ft | 466 kts | 181° |
| 2026-04-25 02:44 | 30.61437 | -81.28104 | 30182 ft | 461 kts | 181° |
| 2026-04-25 02:44 | 30.58246 | -81.28037 | 29691 ft | 455 kts | 179° |
| 2026-04-25 02:44 | 30.55116 | -81.27840 | 29269 ft | 446 kts | 178° |
| 2026-04-25 02:45 | 30.52055 | -81.27586 | 28903 ft | 437 kts | 177° |
| 2026-04-25 02:45 | 30.49048 | -81.27323 | 28519 ft | 430 kts | 177° |
| 2026-04-25 02:45 | 30.46065 | -81.27067 | 28182 ft | 431 kts | 178° |
| 2026-04-25 02:45 | 30.43056 | -81.26821 | 27823 ft | 437 kts | 178° |
| 2026-04-25 02:46 | 30.40012 | -81.26582 | 27457 ft | 438 kts | 178° |
| 2026-04-25 02:46 | 30.36982 | -81.26350 | 27071 ft | 435 kts | 178° |
| 2026-04-25 02:46 | 30.33981 | -81.26123 | 26705 ft | 431 kts | 178° |
| 2026-04-25 02:46 | 30.30996 | -81.25898 | 26350 ft | 428 kts | 178° |
| 2026-04-25 02:47 | 30.28036 | -81.25676 | 25996 ft | 425 kts | 178° |
| 2026-04-25 02:47 | 30.25086 | -81.25457 | 25644 ft | 423 kts | 178° |
| 2026-04-25 02:47 | 30.22153 | -81.25239 | 25300 ft | 422 kts | 178° |
| 2026-04-25 02:47 | 30.19226 | -81.25022 | 24945 ft | 421 kts | 178° |
| 2026-04-25 02:48 | 30.16350 | -81.24808 | 24611 ft | 420 kts | 178° |
| 2026-04-25 02:48 | 30.13432 | -81.24590 | 24258 ft | 420 kts | 178° |
| 2026-04-25 02:48 | 30.10519 | -81.24373 | 23910 ft | 419 kts | 178° |
| 2026-04-25 02:48 | 30.07606 | -81.24157 | 23534 ft | 419 kts | 178° |
| 2026-04-25 02:49 | 30.04698 | -81.23941 | 23141 ft | 418 kts | 178° |
| 2026-04-25 02:49 | 30.01802 | -81.23725 | 22769 ft | 417 kts | 178° |
| 2026-04-25 02:49 | 29.98916 | -81.23510 | 22406 ft | 414 kts | 178° |
| 2026-04-25 02:49 | 29.96046 | -81.23297 | 22053 ft | 412 kts | 178° |
| 2026-04-25 02:50 | 29.93197 | -81.23085 | 21711 ft | 410 kts | 178° |
| 2026-04-25 02:50 | 29.90360 | -81.22874 | 21368 ft | 407 kts | 178° |
| 2026-04-25 02:50 | 29.87536 | -81.22665 | 21028 ft | 406 kts | 178° |
| 2026-04-25 02:50 | 29.84726 | -81.22457 | 20692 ft | 404 kts | 178° |
| 2026-04-25 02:51 | 29.81928 | -81.22250 | 20353 ft | 402 kts | 178° |
| 2026-04-25 02:51 | 29.79141 | -81.22043 | 20020 ft | 401 kts | 178° |
| 2026-04-25 02:51 | 29.76365 | -81.21838 | 19683 ft | 399 kts | 178° |
| 2026-04-25 02:51 | 29.73599 | -81.21633 | 19352 ft | 398 kts | 178° |
| 2026-04-25 02:52 | 29.70838 | -81.21429 | 19021 ft | 397 kts | 178° |
| 2026-04-25 02:52 | 29.68083 | -81.21210 | 18653 ft | 397 kts | 178° |
| 2026-04-25 02:52 | 29.65330 | -81.20974 | 18285 ft | 397 kts | 178° |
| 2026-04-25 02:52 | 29.62580 | -81.20733 | 17874 ft | 394 kts | 178° |
| 2026-04-25 02:53 | 29.59858 | -81.20494 | 17480 ft | 390 kts | 178° |
| 2026-04-25 02:53 | 29.57173 | -81.20259 | 17112 ft | 385 kts | 178° |
| 2026-04-25 02:53 | 29.54523 | -81.20029 | 16757 ft | 379 kts | 178° |
| 2026-04-25 02:53 | 29.51907 | -81.19805 | 16410 ft | 375 kts | 178° |
| 2026-04-25 02:54 | 29.49321 | -81.19584 | 16070 ft | 371 kts | 178° |
| 2026-04-25 02:54 | 29.46758 | -81.19365 | 15733 ft | 368 kts | 178° |
| 2026-04-25 02:54 | 29.44249 | -81.19151 | 15407 ft | 365 kts | 177° |
| 2026-04-25 02:54 | 29.41695 | -81.18933 | 15071 ft | 362 kts | 177° |
| 2026-04-25 02:55 | 29.39188 | -81.18718 | 14741 ft | 360 kts | 177° |
| 2026-04-25 02:55 | 29.36731 | -81.18510 | 14416 ft | 358 kts | 177° |
| 2026-04-25 02:55 | 29.34244 | -81.18298 | 14092 ft | 360 kts | 177° |
| 2026-04-25 02:55 | 29.31739 | -81.18081 | 13748 ft | 361 kts | 177° |
| 2026-04-25 02:56 | 29.29234 | -81.17866 | 13372 ft | 360 kts | 177° |
| 2026-04-25 02:56 | 29.26744 | -81.17649 | 13022 ft | 358 kts | 177° |
| 2026-04-25 02:56 | 29.24278 | -81.17428 | 12683 ft | 352 kts | 177° |
| 2026-04-25 02:56 | 29.21868 | -81.17221 | 12354 ft | 341 kts | 177° |
| 2026-04-25 02:57 | 29.19557 | -81.17018 | 12030 ft | 327 kts | 176° |
| 2026-04-25 02:57 | 29.17382 | -81.16493 | 11779 ft | 316 kts | 161° |
| 2026-04-25 02:57 | 29.15350 | -81.15605 | 11566 ft | 309 kts | 159° |
| 2026-04-25 02:57 | 29.13364 | -81.14699 | 11333 ft | 306 kts | 159° |
| 2026-04-25 02:58 | 29.11391 | -81.13813 | 11108 ft | 304 kts | 160° |
| 2026-04-25 02:58 | 29.09412 | -81.12955 | 10882 ft | 304 kts | 160° |
| 2026-04-25 02:58 | 29.07425 | -81.12099 | 10659 ft | 306 kts | 160° |
| 2026-04-25 02:58 | 29.05427 | -81.11246 | 10412 ft | 307 kts | 160° |
| 2026-04-25 02:59 | 29.03427 | -81.10416 | 10177 ft | 305 kts | 162° |
| 2026-04-25 02:59 | 29.01425 | -81.09658 | 9955 ft | 300 kts | 162° |
| 2026-04-25 02:59 | 28.99465 | -81.08927 | 9706 ft | 294 kts | 162° |
| 2026-04-25 02:59 | 28.97535 | -81.08212 | 9443 ft | 289 kts | 165° |
| 2026-04-25 03:00 | 28.95583 | -81.07813 | 9214 ft | 282 kts | 175° |
| 2026-04-25 03:00 | 28.93641 | -81.07624 | 9008 ft | 279 kts | 176° |
| 2026-04-25 03:00 | 28.91727 | -81.07440 | 8800 ft | 273 kts | 176° |
| 2026-04-25 03:00 | 28.89850 | -81.07240 | 8579 ft | 268 kts | 176° |
| 2026-04-25 03:01 | 28.88034 | -81.07416 | 8363 ft | 258 kts | 201° |
| 2026-04-25 03:01 | 28.86488 | -81.08348 | 8203 ft | 248 kts | 217° |
| 2026-04-25 03:01 | 28.85098 | -81.09469 | 8010 ft | 242 kts | 217° |
| 2026-04-25 03:01 | 28.83741 | -81.10573 | 7835 ft | 237 kts | 217° |
| 2026-04-25 03:02 | 28.82399 | -81.11653 | 7657 ft | 235 kts | 217° |
| 2026-04-25 03:02 | 28.81070 | -81.12717 | 7519 ft | 231 kts | 217° |
| 2026-04-25 03:02 | 28.79761 | -81.13759 | 7333 ft | 230 kts | 217° |
| 2026-04-25 03:02 | 28.78439 | -81.14813 | 7147 ft | 235 kts | 217° |
| 2026-04-25 03:03 | 28.77544 | -81.15522 | 6996 ft | 237 kts | 216° |
| 2026-04-25 03:03 | 28.75829 | -81.17101 | 6661 ft | 237 kts | 223° |
| 2026-04-25 03:03 | 28.74609 | -81.18356 | 6327 ft | 234 kts | 224° |
| 2026-04-25 03:03 | 28.73818 | -81.19178 | 6132 ft | 230 kts | 224° |
| 2026-04-25 03:04 | 28.72263 | -81.20782 | 5752 ft | 226 kts | 223° |
| 2026-04-25 03:04 | 28.71101 | -81.21973 | 5485 ft | 225 kts | 223° |
| 2026-04-25 03:04 | 28.69931 | -81.23162 | 5213 ft | 225 kts | 223° |
| 2026-04-25 03:05 | 28.67613 | -81.25506 | 4648 ft | 220 kts | 223° |
| 2026-04-25 03:05 | 28.66482 | -81.26648 | 4378 ft | 215 kts | 222° |
| 2026-04-25 03:05 | 28.65736 | -81.27401 | 4224 ft | 209 kts | 221° |
| 2026-04-25 03:05 | 28.64481 | -81.28159 | 3918 ft | 205 kts | 186° |
| 2026-04-25 03:06 | 28.63073 | -81.28249 | 3669 ft | 203 kts | 185° |
| 2026-04-25 03:06 | 28.61668 | -81.28379 | 3421 ft | 203 kts | 182° |
| 2026-04-25 03:06 | 28.60282 | -81.28416 | 3157 ft | 200 kts | 179° |
| 2026-04-25 03:06 | 28.58898 | -81.28409 | 2896 ft | 197 kts | 178° |
| 2026-04-25 03:07 | 28.57553 | -81.28395 | 2635 ft | 190 kts | 178° |
| 2026-04-25 03:07 | 28.56272 | -81.28381 | 2383 ft | 178 kts | 178° |
| 2026-04-25 03:07 | 28.55063 | -81.28369 | 2176 ft | 172 kts | 177° |
| 2026-04-25 03:07 | 28.53893 | -81.28357 | 1959 ft | 164 kts | 177° |
| 2026-04-25 03:08 | 28.52786 | -81.28345 | 1782 ft | 153 kts | 177° |
| 2026-04-25 03:08 | 28.51748 | -81.28335 | 1548 ft | 144 kts | 177° |
| 2026-04-25 03:08 | 28.50756 | -81.28324 | 1362 ft | 143 kts | 176° |
| 2026-04-25 03:08 | 28.49766 | -81.28314 | 1162 ft | 141 kts | 176° |
| 2026-04-25 03:09 | 28.48792 | -81.28308 | 992 ft | 140 kts | 176° |
| 2026-04-25 03:09 | 28.47808 | -81.28292 | 829 ft | 143 kts | 176° |
| 2026-04-25 03:09 | 28.46807 | -81.28282 | 625 ft | 144 kts | 177° |
| 2026-04-25 03:09 | 28.45807 | -81.28273 | 418 ft | 145 kts | 177° |
| 2026-04-25 03:10 | 28.44806 | -81.28264 | 224 ft | 143 kts | 177° |
| 2026-04-25 03:10 | 28.43825 | -81.28251 | 99 ft | 135 kts | 180° |
| 2026-04-25 03:10 | 28.43096 | -81.28245 | 95 ft | 73 kts | 179° |
| 2026-04-25 03:10 | 28.42790 | -81.28241 | 96 ft | 32 kts | 179° |
| 2026-04-25 03:11 | 28.42606 | -81.28259 | 97 ft | 18 kts | 200° |
| 2026-04-25 03:11 | 28.42534 | -81.28323 | 96 ft | 13 kts | 240° |
| 2026-04-25 03:11 | 28.42504 | -81.28415 | 95 ft | 12 kts | 251° |
| 2026-04-25 03:11 | 28.42476 | -81.28506 | 96 ft | 12 kts | 251° |
| 2026-04-25 03:12 | 28.42449 | -81.28594 | 97 ft | 12 kts | 250° |
| 2026-04-25 03:12 | 28.42422 | -81.28679 | 97 ft | 11 kts | 251° |
| 2026-04-25 03:12 | 28.42395 | -81.28763 | 101 ft | 11 kts | 250° |
| 2026-04-25 03:12 | 28.42361 | -81.28876 | 104 ft | 19 kts | 250° |
| 2026-04-25 03:13 | 28.42309 | -81.29040 | 95 ft | 23 kts | 250° |
| 2026-04-25 03:13 | 28.42286 | -81.29190 | 95 ft | 19 kts | 268° |
| 2026-04-25 03:13 | 28.42285 | -81.29334 | 93 ft | 18 kts | 270° |
| 2026-04-25 03:13 | 28.42284 | -81.29465 | 94 ft | 15 kts | 270° |
| 2026-04-25 03:14 | 28.42283 | -81.29581 | 93 ft | 14 kts | 269° |
| 2026-04-25 03:14 | 28.42282 | -81.29692 | 94 ft | 14 kts | 269° |
| 2026-04-25 03:14 | 28.42281 | -81.29799 | 94 ft | 13 kts | 269° |
| 2026-04-25 03:14 | 28.42280 | -81.29901 | 94 ft | 13 kts | 269° |
| 2026-04-25 03:15 | 28.42279 | -81.30000 | 94 ft | 12 kts | 269° |
| 2026-04-25 03:15 | 28.42278 | -81.30097 | 94 ft | 12 kts | 269° |
| 2026-04-25 03:15 | 28.42277 | -81.30206 | 93 ft | 15 kts | 269° |
| 2026-04-25 03:15 | 28.42275 | -81.30341 | 93 ft | 18 kts | 267° |
| 2026-04-25 03:16 | 28.42266 | -81.30483 | 93 ft | 18 kts | 266° |
| 2026-04-25 03:16 | 28.42257 | -81.30619 | 99 ft | 17 kts | 265° |
| 2026-04-25 03:16 | 28.42248 | -81.30754 | 93 ft | 18 kts | 265° |
| 2026-04-25 03:16 | 28.42239 | -81.30890 | 93 ft | 17 kts | 265° |
| 2026-04-25 03:17 | 28.42234 | -81.31021 | 96 ft | 16 kts | 272° |
| 2026-04-25 03:17 | 28.42253 | -81.31145 | 94 ft | 16 kts | 281° |
| 2026-04-25 03:17 | 28.42267 | -81.31248 | 93 ft | 10 kts | 281° |
| 2026-04-25 03:17 | 28.42325 | -81.31280 | 95 ft | 10 kts | 358° |
| 2026-04-25 03:18 | 28.42394 | -81.31280 | 96 ft | 10 kts | 359° |
| 2026-04-25 03:18 | 28.42450 | -81.31318 | 95 ft | 9 kts | 319° |
| 2026-04-25 03:18 | 28.42499 | -81.31367 | 95 ft | 9 kts | 318° |
| 2026-04-25 03:18 | 28.42537 | -81.31414 | 93 ft | 7 kts | 305° |
| 2026-04-25 03:19 | 28.42571 | -81.31448 | 94 ft | 5 kts | 324° |
| 2026-04-25 03:19 | 28.42588 | -81.31463 | 94 ft | 1 kts | 323° |
| 2026-04-25 03:19 | 28.42590 | -81.31464 | 94 ft | 0 kts | 323° |